createdAt,value
2022-10-08T00:01:20.580Z,5.10
2022-10-08T00:03:51.414Z,5.88
2022-10-08T00:06:26.967Z,6.18
2022-10-08T00:08:56.925Z,5.90
2022-10-08T00:11:30.919Z,8.27
2022-10-08T00:13:58.530Z,11.40
2022-10-08T00:16:29.205Z,4.65
2022-10-08T00:19:01.208Z,6.22
2022-10-08T00:21:31.618Z,6.35
2022-10-08T00:24:01.511Z,5.80
2022-10-08T00:26:31.461Z,5.03
2022-10-08T00:29:01.781Z,8.15
2022-10-08T00:31:40.700Z,4.75
2022-10-08T00:34:11.516Z,7.32
2022-10-08T00:36:40.389Z,7.32
2022-10-08T00:39:12.060Z,7.03
2022-10-08T00:41:40.718Z,11.65
2022-10-08T00:45:02.371Z,5.57
2022-10-08T00:47:32.601Z,11.25
2022-10-08T00:50:05.031Z,5.97
2022-10-08T00:52:35.036Z,7.47
2022-10-08T00:55:06.533Z,7.00
2022-10-08T00:57:35.674Z,8.93
2022-10-08T01:00:09.864Z,8.02
2022-10-08T01:02:37.291Z,8.52
2022-10-08T01:05:06.328Z,6.15
2022-10-08T01:07:54.415Z,9.23
2022-10-08T01:10:21.689Z,7.53
2022-10-08T01:13:09.176Z,6.97
2022-10-08T01:15:46.848Z,8.45
2022-10-08T01:18:33.097Z,7.47
2022-10-08T01:21:41.433Z,5.20
2022-10-08T01:25:06.579Z,4.63
2022-10-08T01:27:46.547Z,6.05
2022-10-08T01:30:16.360Z,10.75
2022-10-08T01:33:00.181Z,6.30
2022-10-08T01:35:31.683Z,5.00
2022-10-08T01:38:07.795Z,7.50
2022-10-08T01:40:37.626Z,5.53
2022-10-08T01:43:10.389Z,8.20
2022-10-08T01:45:42.060Z,6.35
2022-10-08T01:48:14.911Z,7.95
2022-10-08T01:50:46.122Z,8.35
2022-10-08T01:53:17.507Z,6.28
2022-10-08T01:55:50.624Z,8.43
2022-10-08T01:58:40.353Z,5.85
2022-10-08T02:01:24.088Z,6.85
2022-10-08T02:04:10.455Z,8.30
2022-10-08T02:06:43.422Z,11.95
2022-10-08T02:09:11.468Z,7.07
2022-10-08T02:11:38.730Z,8.40
2022-10-08T02:14:06.820Z,8.75
2022-10-08T02:16:36.751Z,7.70
2022-10-08T02:19:10.524Z,6.75
2022-10-08T02:21:40.234Z,10.10
2022-10-08T02:24:38.073Z,6.00
2022-10-08T02:27:09.819Z,5.75
2022-10-08T02:29:53.952Z,6.82
2022-10-08T02:32:34.655Z,6.45
2022-10-08T02:35:18.336Z,12.55
2022-10-08T02:37:59.498Z,7.18
2022-10-08T02:40:30.463Z,7.68
2022-10-08T02:43:07.522Z,7.85
2022-10-08T02:45:46.621Z,8.45
2022-10-08T02:48:20.944Z,9.10
2022-10-08T02:50:51.403Z,5.75
2022-10-08T02:53:19.628Z,6.97
2022-10-08T02:56:18.559Z,7.28
2022-10-08T02:58:46.686Z,5.93
2022-10-08T03:01:31.272Z,4.90
2022-10-08T03:04:04.410Z,7.00
2022-10-08T03:06:32.845Z,9.30
2022-10-08T03:09:01.712Z,8.13
2022-10-08T03:11:30.854Z,8.45
2022-10-08T03:13:59.855Z,5.70
2022-10-08T03:16:37.690Z,12.75
2022-10-08T03:19:07.131Z,8.25
2022-10-08T03:21:34.761Z,9.15
2022-10-08T03:24:02.077Z,8.13
2022-10-08T03:26:29.336Z,6.88
2022-10-08T03:28:56.684Z,7.05
2022-10-08T03:31:23.979Z,8.20
2022-10-08T03:33:52.551Z,7.68
2022-10-08T03:36:21.863Z,9.38
2022-10-08T03:38:49.597Z,8.02
2022-10-08T03:41:17.678Z,27.13
2022-10-08T03:43:45.633Z,8.60
2022-10-08T03:46:15.121Z,7.88
2022-10-08T03:48:43.068Z,7.07
2022-10-08T03:51:14.353Z,11.45
2022-10-08T03:53:42.556Z,7.90
2022-10-08T03:56:24.716Z,8.48
2022-10-08T03:58:57.671Z,9.20
2022-10-08T04:01:26.293Z,8.88
2022-10-08T04:03:53.712Z,9.05
2022-10-08T04:06:21.329Z,6.45
2022-10-08T04:08:48.589Z,12.23
2022-10-08T04:11:18.081Z,6.72
2022-10-08T04:13:45.796Z,8.32
2022-10-08T04:16:16.068Z,9.15
2022-10-08T04:18:44.141Z,8.95
2022-10-08T04:21:14.367Z,10.60
2022-10-08T04:23:42.662Z,8.60
2022-10-08T04:26:11.188Z,7.45
2022-10-08T04:28:40.072Z,13.13
2022-10-08T04:31:10.897Z,8.75
2022-10-08T04:33:38.233Z,11.85
2022-10-08T04:36:13.906Z,8.70
2022-10-08T04:38:43.492Z,10.07
2022-10-08T04:41:20.284Z,7.45
2022-10-08T04:43:48.024Z,8.18
2022-10-08T04:46:18.165Z,12.35
2022-10-08T04:48:47.460Z,7.13
2022-10-08T04:51:15.773Z,9.82
2022-10-08T04:53:43.524Z,10.13
2022-10-08T04:56:21.907Z,8.20
2022-10-08T04:58:49.643Z,10.93
2022-10-08T05:01:19.487Z,8.90
2022-10-08T05:03:49.476Z,11.65
2022-10-08T05:06:18.431Z,6.68
2022-10-08T05:08:46.519Z,8.75
2022-10-08T05:11:14.302Z,8.20
2022-10-08T05:13:42.280Z,16.08
2022-10-08T05:16:12.652Z,11.00
2022-10-08T05:18:41.392Z,8.85
2022-10-08T05:21:15.169Z,12.40
2022-10-08T05:23:43.588Z,10.93
2022-10-08T05:26:19.407Z,9.15
2022-10-08T05:28:47.877Z,8.35
2022-10-08T05:31:18.527Z,15.65
2022-10-08T05:33:45.889Z,8.00
2022-10-08T05:36:21.901Z,10.30
2022-10-08T05:38:49.414Z,6.57
2022-10-08T05:41:22.925Z,7.68
2022-10-08T05:43:51.054Z,10.93
2022-10-08T05:46:18.521Z,6.03
2022-10-08T05:48:46.379Z,8.02
2022-10-08T05:51:17.019Z,9.77
2022-10-08T05:53:47.545Z,7.07
2022-10-08T05:56:17.588Z,8.75
2022-10-08T05:58:45.696Z,7.13
2022-10-08T06:01:24.673Z,6.53
2022-10-08T06:03:54.668Z,11.18
2022-10-08T06:06:23.064Z,9.10
2022-10-08T06:09:01.909Z,7.78
2022-10-08T06:11:31.603Z,12.98
2022-10-08T06:14:00.371Z,11.48
2022-10-08T06:16:29.447Z,11.60
2022-10-08T06:18:57.255Z,8.55
2022-10-08T06:21:26.893Z,9.52
2022-10-08T06:23:56.559Z,6.78
2022-10-08T06:26:29.498Z,8.27
2022-10-08T06:28:59.104Z,8.88
2022-10-08T06:31:26.562Z,8.65
2022-10-08T06:33:58.229Z,9.75
2022-10-08T06:36:27.803Z,11.65
2022-10-08T06:38:57.897Z,8.88
2022-10-08T06:41:26.414Z,6.80
2022-10-08T06:43:54.469Z,8.15
2022-10-08T06:46:22.027Z,9.95
2022-10-08T06:48:49.328Z,9.68
2022-10-08T06:51:18.742Z,9.95
2022-10-08T06:53:52.386Z,11.75
2022-10-08T06:56:19.658Z,10.38
2022-10-08T06:58:47.675Z,13.13
2022-10-08T07:01:17.013Z,9.77
2022-10-08T07:03:48.956Z,12.40
2022-10-08T07:06:16.554Z,12.93
2022-10-08T07:08:43.807Z,12.07
2022-10-08T07:11:17.619Z,14.00
2022-10-08T07:13:45.552Z,13.80
2022-10-08T07:16:20.541Z,9.10
2022-10-08T07:18:50.572Z,12.13
2022-10-08T07:21:20.051Z,9.30
2022-10-08T07:23:48.112Z,11.32
2022-10-08T07:26:25.945Z,10.82
2022-10-08T07:29:01.734Z,13.23
2022-10-08T07:31:31.969Z,9.70
2022-10-08T07:34:00.899Z,14.85
2022-10-08T07:36:29.582Z,12.60
2022-10-08T07:39:03.470Z,18.15
2022-10-08T07:41:31.782Z,8.07
2022-10-08T07:44:01.700Z,10.73
2022-10-08T07:46:31.195Z,8.55
2022-10-08T07:48:59.218Z,9.38
2022-10-08T07:51:27.986Z,10.65
2022-10-08T07:53:58.964Z,14.82
2022-10-08T07:56:31.906Z,9.70
2022-10-08T07:59:00.440Z,11.95
2022-10-08T08:01:30.072Z,16.50
2022-10-08T08:04:09.053Z,9.73
2022-10-08T08:06:45.116Z,13.85
2022-10-08T08:09:14.332Z,10.18
2022-10-08T08:11:41.663Z,11.73
2022-10-08T08:14:09.188Z,11.93
2022-10-08T08:16:36.598Z,10.75
2022-10-08T08:19:04.622Z,8.63
2022-10-08T08:21:34.412Z,11.07
2022-10-08T08:24:11.289Z,12.63
2022-10-08T08:26:40.637Z,9.90
2022-10-08T08:29:17.228Z,8.20
2022-10-08T08:31:46.759Z,10.43
2022-10-08T08:34:19.673Z,11.27
2022-10-08T08:36:49.246Z,12.65
2022-10-08T08:39:27.918Z,11.98
2022-10-08T08:42:17.439Z,11.02
2022-10-08T08:44:49.221Z,8.43
2022-10-08T08:47:19.181Z,10.07
2022-10-08T08:50:06.031Z,9.93
2022-10-08T08:52:41.665Z,9.70
2022-10-08T08:55:18.497Z,9.93
2022-10-08T08:57:54.647Z,28.67
2022-10-08T09:00:27.276Z,28.30
2022-10-08T09:03:00.610Z,10.18
2022-10-08T09:05:31.678Z,8.68
2022-10-08T09:08:20.031Z,11.57
2022-10-08T09:10:57.721Z,9.07
2022-10-08T09:13:30.475Z,8.23
2022-10-08T09:15:58.473Z,12.82
2022-10-08T09:18:25.848Z,9.20
2022-10-08T09:20:53.148Z,8.70
2022-10-08T09:23:23.473Z,7.88
2022-10-08T09:26:19.970Z,12.32
2022-10-08T09:28:55.705Z,12.18
2022-10-08T09:31:32.397Z,10.05
2022-10-08T09:34:17.895Z,7.80
2022-10-08T09:36:51.178Z,11.57
2022-10-08T09:39:33.891Z,9.32
2022-10-08T09:42:06.889Z,7.93
2022-10-08T09:44:46.892Z,11.18
2022-10-08T09:47:20.065Z,9.35
2022-10-08T09:52:29.277Z,8.77
2022-10-08T09:55:01.849Z,6.47
2022-10-08T09:57:31.367Z,8.48
2022-10-08T10:00:01.454Z,9.10
2022-10-08T10:02:32.865Z,12.32
2022-10-08T10:05:02.717Z,15.05
2022-10-08T10:07:42.375Z,10.35
2022-10-08T10:10:32.981Z,12.70
2022-10-08T10:13:11.524Z,13.32
2022-10-08T10:16:14.515Z,10.35
2022-10-08T10:19:00.337Z,11.02
2022-10-08T10:21:37.804Z,10.02
2022-10-08T10:24:24.014Z,9.50
2022-10-08T10:26:56.240Z,8.60
2022-10-08T10:29:27.210Z,13.10
2022-10-08T10:32:08.767Z,12.32
2022-10-08T10:34:40.025Z,9.40
2022-10-08T10:37:18.992Z,11.48
2022-10-08T10:39:55.465Z,11.10
2022-10-08T10:42:43.745Z,10.35
2022-10-08T10:45:14.281Z,13.50
2022-10-08T10:47:41.825Z,9.65
2022-10-08T10:50:16.715Z,8.98
2022-10-08T10:53:24.756Z,11.18
2022-10-08T10:55:54.677Z,14.02
2022-10-08T10:58:34.184Z,9.50
2022-10-08T11:01:14.506Z,12.57
2022-10-08T11:03:50.416Z,13.55
2022-10-08T11:06:35.799Z,11.45
2022-10-08T11:09:14.891Z,10.43
2022-10-08T11:12:17.412Z,12.23
2022-10-08T11:14:44.869Z,15.23
2022-10-08T11:17:34.046Z,11.73
2022-10-08T11:20:38.015Z,12.02
2022-10-08T11:23:20.856Z,10.07
2022-10-08T11:26:21.959Z,10.75
2022-10-08T11:29:11.421Z,14.43
2022-10-08T11:31:45.421Z,10.85
2022-10-08T11:34:33.760Z,11.32
2022-10-08T11:37:08.421Z,13.25
2022-10-08T11:40:12.337Z,11.35
2022-10-08T11:42:49.015Z,12.93
2022-10-08T11:45:29.378Z,14.88
2022-10-08T11:47:59.770Z,12.57
2022-10-08T11:50:36.134Z,10.70
2022-10-08T11:53:15.427Z,15.27
2022-10-08T11:55:55.437Z,12.45
2022-10-08T11:58:29.237Z,9.45
2022-10-08T12:01:07.864Z,11.55
2022-10-08T12:03:37.989Z,10.27
2022-10-08T12:06:25.226Z,10.43
2022-10-08T12:09:01.148Z,10.05
2022-10-08T12:11:40.486Z,9.13
2022-10-08T12:14:17.012Z,9.18
2022-10-08T12:17:07.740Z,10.63
2022-10-08T12:19:35.172Z,11.23
2022-10-08T12:22:14.973Z,10.70
2022-10-08T12:24:49.604Z,13.77
2022-10-08T12:27:17.546Z,9.63
2022-10-08T12:30:13.922Z,10.55
2022-10-08T12:32:44.160Z,12.93
2022-10-08T12:35:39.950Z,13.82
2022-10-08T12:38:10.023Z,11.85
2022-10-08T12:40:52.941Z,16.80
2022-10-08T12:43:36.346Z,14.32
2022-10-08T12:46:18.764Z,14.25
2022-10-08T12:49:36.911Z,12.53
2022-10-08T12:52:12.817Z,12.40
2022-10-08T12:54:57.984Z,12.25
2022-10-08T12:57:38.077Z,12.88
2022-10-08T13:00:10.051Z,12.27
2022-10-08T13:02:39.031Z,14.00
2022-10-08T13:05:23.588Z,10.93
2022-10-08T13:07:50.962Z,12.93
2022-10-08T13:10:24.306Z,12.55
2022-10-08T13:13:06.039Z,10.80
2022-10-08T13:15:34.780Z,11.45
2022-10-08T13:18:20.669Z,12.93
2022-10-08T13:20:58.969Z,11.73
2022-10-08T13:23:50.891Z,11.98
2022-10-08T13:26:44.512Z,21.92
2022-10-08T13:32:04.736Z,11.73
2022-10-08T13:34:43.860Z,9.75
2022-10-08T13:37:23.128Z,14.13
2022-10-08T13:40:02.787Z,15.10
2022-10-08T13:42:33.812Z,7.53
2022-10-08T13:45:03.544Z,11.48
2022-10-08T13:47:30.825Z,11.48
2022-10-08T13:50:01.957Z,10.55
2022-10-08T13:52:32.089Z,12.60
2022-10-08T13:55:15.903Z,12.55
2022-10-08T13:57:43.157Z,14.65
2022-10-08T14:00:14.504Z,10.48
2022-10-08T14:02:41.841Z,8.98
2022-10-08T14:05:09.112Z,12.48
2022-10-08T14:07:37.605Z,15.93
2022-10-08T14:10:06.454Z,12.20
2022-10-08T14:12:34.657Z,20.92
2022-10-08T14:15:01.966Z,9.90
2022-10-08T14:17:29.207Z,9.43
2022-10-08T14:19:56.515Z,9.90
2022-10-08T14:22:23.884Z,8.52
2022-10-08T14:24:51.654Z,13.25
2022-10-08T14:27:19.037Z,9.98
2022-10-08T14:29:46.295Z,10.93
2022-10-08T14:32:13.643Z,7.63
2022-10-08T14:34:41.126Z,9.38
2022-10-08T14:37:10.388Z,7.72
2022-10-08T14:39:37.666Z,9.43
2022-10-08T14:42:05.003Z,8.05
2022-10-08T14:44:32.250Z,9.43
2022-10-08T14:46:59.532Z,11.80
2022-10-08T14:49:26.866Z,11.60
2022-10-08T14:51:54.142Z,9.75
2022-10-08T14:54:21.452Z,10.30
2022-10-08T14:56:48.865Z,11.98
2022-10-08T14:59:16.288Z,11.65
2022-10-08T15:01:43.726Z,10.07
2022-10-08T15:04:13.641Z,12.38
2022-10-08T15:06:41.159Z,10.55
2022-10-08T15:09:11.104Z,11.13
2022-10-08T15:11:38.829Z,9.93
2022-10-08T15:14:06.222Z,10.88
2022-10-08T15:16:33.631Z,8.82
2022-10-08T15:19:01.142Z,11.15
2022-10-08T15:21:28.518Z,8.85
2022-10-08T15:23:57.052Z,8.05
2022-10-08T15:26:24.482Z,10.65
2022-10-08T15:28:53.608Z,6.18
2022-10-08T15:31:24.906Z,8.52
2022-10-08T15:33:54.360Z,12.30
2022-10-08T15:36:30.543Z,14.23
2022-10-08T15:39:14.963Z,12.68
2022-10-08T15:41:45.048Z,11.60
2022-10-08T15:44:18.240Z,10.10
2022-10-08T15:49:16.835Z,9.00
2022-10-08T15:51:44.058Z,10.65
2022-10-08T15:54:11.401Z,10.48
2022-10-08T15:56:38.754Z,10.20
2022-10-08T15:59:06.028Z,13.27
2022-10-08T16:01:33.414Z,11.68
2022-10-08T16:04:00.793Z,10.43
2022-10-08T16:06:33.034Z,8.65
2022-10-08T16:09:01.079Z,12.40
2022-10-08T16:11:32.399Z,13.57
2022-10-08T16:14:09.536Z,8.00
2022-10-08T16:16:38.417Z,10.20
2022-10-08T16:19:09.146Z,11.20
2022-10-08T16:21:37.409Z,11.60
2022-10-08T16:24:05.147Z,10.27
2022-10-08T16:26:33.792Z,8.63
2022-10-08T16:29:04.147Z,11.77
2022-10-08T16:31:34.122Z,10.05
2022-10-08T16:34:03.793Z,11.43
2022-10-08T16:36:33.891Z,12.40
2022-10-08T16:39:01.542Z,12.70
2022-10-08T16:41:31.013Z,10.98
2022-10-08T16:44:03.259Z,13.57
2022-10-08T16:46:33.751Z,12.18
2022-10-08T16:49:07.261Z,12.50
2022-10-08T16:51:37.821Z,13.00
2022-10-08T16:54:07.814Z,10.93
2022-10-08T16:56:37.439Z,14.73
2022-10-08T16:59:07.798Z,15.23
2022-10-08T17:01:36.237Z,14.65
2022-10-08T17:04:06.585Z,14.63
2022-10-08T17:06:34.073Z,17.77
2022-10-08T17:09:01.540Z,14.07
2022-10-08T17:11:28.840Z,20.60
2022-10-08T17:13:57.957Z,20.60
2022-10-08T17:16:26.999Z,22.15
2022-10-08T17:18:56.075Z,23.67
2022-10-08T17:21:24.369Z,17.58
2022-10-08T17:23:52.176Z,20.17
2022-10-08T17:26:22.128Z,21.17
2022-10-08T17:28:51.165Z,23.38
2022-10-08T17:31:22.066Z,22.92
2022-10-08T17:33:49.602Z,18.42
2022-10-08T17:36:22.784Z,20.20
2022-10-08T17:41:26.870Z,16.88
2022-10-08T17:43:57.567Z,16.52
2022-10-08T17:46:27.786Z,17.15
2022-10-08T17:48:55.481Z,19.83
2022-10-08T17:51:28.018Z,16.67
2022-10-08T17:54:03.801Z,14.95
2022-10-08T17:56:32.085Z,16.30
2022-10-08T17:58:59.679Z,16.13
2022-10-08T18:01:35.487Z,20.02
2022-10-08T18:04:05.696Z,19.05
2022-10-08T18:06:34.239Z,16.67
2022-10-08T18:09:04.421Z,16.00
2022-10-08T18:11:33.539Z,16.08
2022-10-08T18:14:02.154Z,15.38
2022-10-08T18:16:29.436Z,12.75
2022-10-08T18:18:56.821Z,18.63
2022-10-08T18:21:24.070Z,15.68
2022-10-08T18:23:51.645Z,14.85
2022-10-08T18:26:24.576Z,16.30
2022-10-08T18:28:54.679Z,15.40
2022-10-08T18:31:23.767Z,17.20
2022-10-08T18:33:55.163Z,15.52
2022-10-08T18:36:24.799Z,22.55
2022-10-08T18:39:00.814Z,14.15
2022-10-08T18:41:38.109Z,15.02
2022-10-08T18:44:06.515Z,16.67
2022-10-08T18:46:35.814Z,13.30
2022-10-08T18:49:03.883Z,13.00
2022-10-08T18:51:31.306Z,19.20
2022-10-08T18:54:01.918Z,19.58
2022-10-08T18:56:31.747Z,18.52
2022-10-08T18:59:03.484Z,13.02
2022-10-08T19:01:33.570Z,23.60
2022-10-08T19:04:03.856Z,18.02
2022-10-08T19:06:35.676Z,16.13
2022-10-08T19:09:04.887Z,14.35
2022-10-08T19:11:43.523Z,17.58
2022-10-08T19:14:14.277Z,14.63
2022-10-08T19:16:51.095Z,16.35
2022-10-08T19:19:24.514Z,15.98
2022-10-08T19:21:54.290Z,18.42
2022-10-08T19:24:23.853Z,15.23
2022-10-08T19:26:53.113Z,18.85
2022-10-08T19:29:25.669Z,21.77
2022-10-08T19:31:52.986Z,19.88
2022-10-08T19:34:24.100Z,14.88
2022-10-08T19:36:51.720Z,13.25
2022-10-08T19:39:23.035Z,16.02
2022-10-08T19:41:50.934Z,17.38
2022-10-08T19:44:20.868Z,14.35
2022-10-08T19:46:48.674Z,16.95
2022-10-08T19:49:15.997Z,17.00
2022-10-08T19:51:46.610Z,19.20
2022-10-08T19:54:14.425Z,18.88
2022-10-08T19:56:42.213Z,15.23
2022-10-08T19:59:11.696Z,18.45
2022-10-08T20:01:40.984Z,16.70
2022-10-08T20:04:09.844Z,22.92
2022-10-08T20:06:39.923Z,15.75
2022-10-08T20:09:12.756Z,18.73
2022-10-08T20:11:41.591Z,20.88
2022-10-08T20:14:08.978Z,19.23
2022-10-08T20:16:39.109Z,20.70
2022-10-08T20:19:14.303Z,16.73
2022-10-08T20:21:41.783Z,16.42
2022-10-08T20:24:09.913Z,18.70
2022-10-08T20:26:41.665Z,16.33
2022-10-08T20:29:14.869Z,16.02
2022-10-08T20:34:13.861Z,17.70
2022-10-08T20:36:41.622Z,13.80
2022-10-08T20:39:10.422Z,36.97
2022-10-08T20:41:37.788Z,16.38
2022-10-08T20:44:05.463Z,14.80
2022-10-08T20:46:34.652Z,14.77
2022-10-08T20:49:02.432Z,12.55
2022-10-08T20:51:30.636Z,15.63
2022-10-08T20:54:04.222Z,15.82
2022-10-08T20:56:38.489Z,14.85
2022-10-08T20:59:08.115Z,13.45
2022-10-08T21:01:38.595Z,15.18
2022-10-08T21:04:07.677Z,13.10
2022-10-08T21:06:38.100Z,14.43
2022-10-08T21:09:05.829Z,16.42
2022-10-08T21:11:33.241Z,21.02
2022-10-08T21:14:01.676Z,30.58
2022-10-08T21:16:34.658Z,16.20
2022-10-08T21:19:05.675Z,10.93
2022-10-08T21:21:34.229Z,10.27
2022-10-08T21:24:01.865Z,12.00
2022-10-08T21:26:34.327Z,14.70
2022-10-08T21:29:04.553Z,12.03
2022-10-08T21:31:33.811Z,12.10
2022-10-08T21:34:01.470Z,13.18
2022-10-08T21:36:32.423Z,12.57
2022-10-08T21:39:01.450Z,11.30
2022-10-08T21:41:33.767Z,10.10
2022-10-08T21:44:05.082Z,12.70
2022-10-08T21:46:34.661Z,13.50
2022-10-08T21:49:04.784Z,15.57
2022-10-08T21:51:33.035Z,30.35
2022-10-08T21:54:02.711Z,15.07
2022-10-08T21:56:33.048Z,16.17
2022-10-08T21:59:02.538Z,14.13
2022-10-08T22:01:34.528Z,14.93
2022-10-08T22:04:04.947Z,16.33
2022-10-08T22:06:35.955Z,17.40
2022-10-08T22:09:05.384Z,19.85
2022-10-08T22:11:33.288Z,17.70
2022-10-08T22:14:00.673Z,17.25
2022-10-08T22:16:29.706Z,22.90
2022-10-08T22:18:57.965Z,13.95
2022-10-08T22:21:25.688Z,18.35
2022-10-08T22:23:53.488Z,14.13
2022-10-08T22:26:29.638Z,15.45
2022-10-08T22:28:57.757Z,14.98
2022-10-08T22:31:25.655Z,17.40
2022-10-08T22:33:53.588Z,16.88
2022-10-08T22:36:23.554Z,18.67
2022-10-08T22:38:51.276Z,16.05
2022-10-08T22:41:21.614Z,14.88
2022-10-08T22:43:49.463Z,18.15
2022-10-08T22:46:28.104Z,17.52
2022-10-08T22:49:04.978Z,16.25
2022-10-08T22:51:32.741Z,16.67
2022-10-08T22:54:00.112Z,14.68
2022-10-08T22:56:29.664Z,18.08
2022-10-08T22:58:59.020Z,16.75
2022-10-08T23:01:28.252Z,14.55
2022-10-08T23:03:55.896Z,19.98
2022-10-08T23:06:29.384Z,16.80
2022-10-08T23:09:02.315Z,17.92
2022-10-08T23:11:31.017Z,20.48
2022-10-08T23:13:59.882Z,16.77
2022-10-08T23:16:29.130Z,15.00
2022-10-08T23:19:02.545Z,15.48
2022-10-08T23:21:30.412Z,20.63
2022-10-08T23:23:58.091Z,23.55
2022-10-08T23:26:26.172Z,18.88
2022-10-08T23:28:56.305Z,16.63
2022-10-08T23:31:26.470Z,15.45
2022-10-08T23:33:55.504Z,18.75
2022-10-08T23:36:25.693Z,18.85
2022-10-08T23:38:53.267Z,22.08
2022-10-08T23:41:20.765Z,18.90
2022-10-08T23:43:50.160Z,16.48
2022-10-08T23:46:20.367Z,22.98
2022-10-08T23:48:49.002Z,18.33
2022-10-08T23:51:17.372Z,20.25
2022-10-08T23:53:45.372Z,19.02
2022-10-08T23:56:13.810Z,24.20
2022-10-08T23:58:41.346Z,19.52
